sensor_id;sensor_type;location;lat;lon;timestamp;pressure;altitude;pressure_sealevel;temperature;humidity
55066;BME280;40964;42.114;24.220;2023-05-19T00:01:26;97884.50;;;14.42;73.09
55066;BME280;40964;42.114;24.220;2023-05-19T00:03:56;97888.50;;;14.44;72.86
55066;BME280;40964;42.114;24.220;2023-05-19T00:06:31;97879.09;;;14.48;71.91
55066;BME280;40964;42.114;24.220;2023-05-19T00:09:01;97881.50;;;14.50;72.74
55066;BME280;40964;42.114;24.220;2023-05-19T00:11:27;97888.41;;;14.51;72.37
55066;BME280;40964;42.114;24.220;2023-05-19T00:14:03;97874.38;;;14.51;71.65
55066;BME280;40964;42.114;24.220;2023-05-19T00:16:30;97870.56;;;14.46;71.27
55066;BME280;40964;42.114;24.220;2023-05-19T00:18:59;97874.38;;;14.51;72.01
55066;BME280;40964;42.114;24.220;2023-05-19T00:21:25;97875.66;;;14.48;71.90
55066;BME280;40964;42.114;24.220;2023-05-19T00:23:51;97863.69;;;14.45;70.78
55066;BME280;40964;42.114;24.220;2023-05-19T00:26:17;97874.91;;;14.53;71.22
55066;BME280;40964;42.114;24.220;2023-05-19T00:28:43;97877.66;;;14.58;69.84
55066;BME280;40964;42.114;24.220;2023-05-19T00:31:08;97868.13;;;14.57;70.64
55066;BME280;40964;42.114;24.220;2023-05-19T00:33:34;97870.78;;;14.57;70.16
55066;BME280;40964;42.114;24.220;2023-05-19T00:36:02;97875.97;;;14.68;68.85
55066;BME280;40964;42.114;24.220;2023-05-19T00:38:30;97879.44;;;14.69;69.11
55066;BME280;40964;42.114;24.220;2023-05-19T00:40:56;97882.63;;;14.71;68.64
55066;BME280;40964;42.114;24.220;2023-05-19T00:43:22;97875.97;;;14.85;67.31
55066;BME280;40964;42.114;24.220;2023-05-19T00:45:47;97882.22;;;14.79;69.86
55066;BME280;40964;42.114;24.220;2023-05-19T00:48:13;97886.19;;;14.76;69.41
55066;BME280;40964;42.114;24.220;2023-05-19T00:50:39;97872.94;;;14.76;68.27
55066;BME280;40964;42.114;24.220;2023-05-19T00:53:06;97871.56;;;14.74;69.04
55066;BME280;40964;42.114;24.220;2023-05-19T00:55:32;97868.44;;;14.77;68.52
55066;BME280;40964;42.114;24.220;2023-05-19T00:57:58;97868.44;;;14.77;68.43
55066;BME280;40964;42.114;24.220;2023-05-19T01:00:24;97864.19;;;14.76;69.12
55066;BME280;40964;42.114;24.220;2023-05-19T01:02:50;97861.78;;;14.74;69.37
55066;BME280;40964;42.114;24.220;2023-05-19T01:05:16;97864.66;;;14.73;69.03
55066;BME280;40964;42.114;24.220;2023-05-19T01:07:42;97864.66;;;14.73;69.25
55066;BME280;40964;42.114;24.220;2023-05-19T01:10:08;97864.59;;;14.68;69.66
55066;BME280;40964;42.114;24.220;2023-05-19T01:12:34;97865.94;;;14.70;68.86
55066;BME280;40964;42.114;24.220;2023-05-19T01:15:01;97864.19;;;14.76;68.65
55066;BME280;40964;42.114;24.220;2023-05-19T01:23:27;97863.03;;;14.89;68.67
55066;BME280;40964;42.114;24.220;2023-05-19T01:28:52;97869.41;;;14.88;69.24
55066;BME280;40964;42.114;24.220;2023-05-19T01:31:25;97873.19;;;14.92;68.50
55066;BME280;40964;42.114;24.220;2023-05-19T01:33:52;97860.50;;;14.94;68.62
55066;BME280;40964;42.114;24.220;2023-05-19T01:36:19;97856.25;;;14.93;68.57
55066;BME280;40964;42.114;24.220;2023-05-19T01:38:48;97854.84;;;14.90;69.79
55066;BME280;40964;42.114;24.220;2023-05-19T01:41:15;97864.09;;;14.88;69.13
55066;BME280;40964;42.114;24.220;2023-05-19T01:43:43;97845.56;;;14.88;68.67
55066;BME280;40964;42.114;24.220;2023-05-19T01:46:08;97856.78;;;14.95;68.87
55066;BME280;40964;42.114;24.220;2023-05-19T01:48:34;97857.84;;;14.94;68.75
55066;BME280;40964;42.114;24.220;2023-05-19T01:51:00;97844.09;;;14.97;68.32
55066;BME280;40964;42.114;24.220;2023-05-19T01:53:25;97842.50;;;14.96;68.04
55066;BME280;40964;42.114;24.220;2023-05-19T01:55:53;97850.28;;;15.02;67.77
55066;BME280;40964;42.114;24.220;2023-05-19T02:01:02;97865.38;;;15.02;68.90
55066;BME280;40964;42.114;24.220;2023-05-19T02:12:02;97870.19;;;15.05;68.68
55066;BME280;40964;42.114;24.220;2023-05-19T02:17:03;97870.72;;;15.07;68.48
55066;BME280;40964;42.114;24.220;2023-05-19T02:19:36;97871.78;;;15.06;69.57
55066;BME280;40964;42.114;24.220;2023-05-19T02:22:01;97869.88;;;15.01;68.40
55066;BME280;40964;42.114;24.220;2023-05-19T02:24:27;97870.19;;;15.05;69.06
55066;BME280;40964;42.114;24.220;2023-05-19T02:26:53;97870.47;;;15.09;68.26
55066;BME280;40964;42.114;24.220;2023-05-19T02:29:19;97870.03;;;15.12;69.04
55066;BME280;40964;42.114;24.220;2023-05-19T02:31:45;97878.44;;;15.09;69.72
55066;BME280;40964;42.114;24.220;2023-05-19T02:34:10;97881.66;;;15.11;69.55
55066;BME280;40964;42.114;24.220;2023-05-19T02:36:38;97872.09;;;15.10;68.36
55066;BME280;40964;42.114;24.220;2023-05-19T02:39:05;97884.38;;;15.16;68.58
55066;BME280;40964;42.114;24.220;2023-05-19T02:41:30;97885.16;;;15.16;68.55
55066;BME280;40964;42.114;24.220;2023-05-19T02:43:56;97882.84;;;15.20;69.84
55066;BME280;40964;42.114;24.220;2023-05-19T02:46:22;97879.06;;;15.16;68.42
55066;BME280;40964;42.114;24.220;2023-05-19T02:48:48;97888.56;;;15.12;68.64
55066;BME280;40964;42.114;24.220;2023-05-19T02:51:13;97884.13;;;15.17;69.18
55066;BME280;40964;42.114;24.220;2023-05-19T02:53:39;97899.22;;;15.17;69.11
55066;BME280;40964;42.114;24.220;2023-05-19T02:56:04;97894.97;;;15.16;68.28
55066;BME280;40964;42.114;24.220;2023-05-19T02:58:30;97888.88;;;15.15;68.22
55066;BME280;40964;42.114;24.220;2023-05-19T03:00:55;97889.66;;;15.16;68.44
55066;BME280;40964;42.114;24.220;2023-05-19T03:03:21;97880.91;;;15.15;67.89
55066;BME280;40964;42.114;24.220;2023-05-19T03:05:47;97888.06;;;15.15;68.78
55066;BME280;40964;42.114;24.220;2023-05-19T03:08:12;97886.22;;;15.15;67.65
55066;BME280;40964;42.114;24.220;2023-05-19T03:10:38;97898.66;;;15.15;68.87
55066;BME280;40964;42.114;24.220;2023-05-19T03:13:03;97891.47;;;15.10;69.19
55066;BME280;40964;42.114;24.220;2023-05-19T03:15:29;97903.56;;;15.06;69.14
55066;BME280;40964;42.114;24.220;2023-05-19T03:17:55;97903.66;;;15.11;68.63
55066;BME280;40964;42.114;24.220;2023-05-19T03:20:21;97901.56;;;15.13;68.01
55066;BME280;40964;42.114;24.220;2023-05-19T03:22:46;97908.47;;;15.14;68.80
55066;BME280;40964;42.114;24.220;2023-05-19T03:25:11;97900.41;;;15.09;68.63
55066;BME280;40964;42.114;24.220;2023-05-19T03:27:37;97909.75;;;15.12;68.30
55066;BME280;40964;42.114;24.220;2023-05-19T03:30:03;97900.59;;;15.19;68.73
55066;BME280;40964;42.114;24.220;2023-05-19T03:32:29;97892.56;;;15.14;68.91
55066;BME280;40964;42.114;24.220;2023-05-19T03:34:57;97910.19;;;15.25;68.23
55066;BME280;40964;42.114;24.220;2023-05-19T03:37:23;97902.63;;;15.34;68.82
55066;BME280;40964;42.114;24.220;2023-05-19T03:39:48;97909.13;;;15.43;67.99
55066;BME280;40964;42.114;24.220;2023-05-19T03:42:13;97908.72;;;15.51;67.46
55066;BME280;40964;42.114;24.220;2023-05-19T03:44:39;97904.84;;;15.59;67.40
55066;BME280;40964;42.114;24.220;2023-05-19T03:47:04;97909.50;;;15.69;66.56
55066;BME280;40964;42.114;24.220;2023-05-19T03:49:30;97915.25;;;15.82;67.20
55066;BME280;40964;42.114;24.220;2023-05-19T03:51:55;97905.66;;;16.03;66.73
55066;BME280;40964;42.114;24.220;2023-05-19T03:54:21;97910.72;;;16.27;65.00
55066;BME280;40964;42.114;24.220;2023-05-19T03:56:47;97911.09;;;16.40;65.69
55066;BME280;40964;42.114;24.220;2023-05-19T03:59:12;97911.25;;;16.56;64.46
55066;BME280;40964;42.114;24.220;2023-05-19T04:01:38;97899.22;;;16.48;64.20
55066;BME280;40964;42.114;24.220;2023-05-19T04:04:03;97916.31;;;16.62;65.30
55066;BME280;40964;42.114;24.220;2023-05-19T04:06:29;97904.56;;;16.80;64.30
55066;BME280;40964;42.114;24.220;2023-05-19T04:08:55;97909.94;;;16.85;63.15
55066;BME280;40964;42.114;24.220;2023-05-19T04:11:20;97918.50;;;16.97;63.55
55066;BME280;40964;42.114;24.220;2023-05-19T04:13:46;97916.97;;;17.07;63.08
55066;BME280;40964;42.114;24.220;2023-05-19T04:16:11;97912.31;;;17.24;62.76
55066;BME280;40964;42.114;24.220;2023-05-19T04:18:37;97930.28;;;17.44;61.02
55066;BME280;40964;42.114;24.220;2023-05-19T04:21:03;97921.00;;;17.51;60.83
55066;BME280;40964;42.114;24.220;2023-05-19T04:23:28;97924.22;;;17.58;59.92
55066;BME280;40964;42.114;24.220;2023-05-19T04:25:54;97911.03;;;17.74;60.44
55066;BME280;40964;42.114;24.220;2023-05-19T04:28:21;97915.28;;;17.75;59.45
55066;BME280;40964;42.114;24.220;2023-05-19T04:30:48;97925.19;;;17.79;60.25
55066;BME280;40964;42.114;24.220;2023-05-19T04:33:15;97924.88;;;17.76;58.88
55066;BME280;40964;42.114;24.220;2023-05-19T04:35:40;97929.22;;;17.92;59.80
55066;BME280;40964;42.114;24.220;2023-05-19T04:38:08;97930.31;;;18.01;57.87
55066;BME280;40964;42.114;24.220;2023-05-19T04:40:34;97927.13;;;17.99;58.60
55066;BME280;40964;42.114;24.220;2023-05-19T04:42:59;97935.00;;;17.79;58.33
55066;BME280;40964;42.114;24.220;2023-05-19T04:45:26;97931.78;;;17.77;59.34
55066;BME280;40964;42.114;24.220;2023-05-19T04:47:52;97941.22;;;18.00;59.64
55066;BME280;40964;42.114;24.220;2023-05-19T04:50:22;97931.06;;;17.97;58.71
55066;BME280;40964;42.114;24.220;2023-05-19T04:52:47;97916.97;;;17.96;59.16
55066;BME280;40964;42.114;24.220;2023-05-19T04:55:13;97935.63;;;18.01;58.25
55066;BME280;40964;42.114;24.220;2023-05-19T04:57:39;97926.31;;;17.99;59.02
55066;BME280;40964;42.114;24.220;2023-05-19T05:00:05;97930.03;;;18.03;59.90
55066;BME280;40964;42.114;24.220;2023-05-19T05:02:34;97936.22;;;18.19;57.94
55066;BME280;40964;42.114;24.220;2023-05-19T05:05:00;97935.69;;;18.22;57.92
55066;BME280;40964;42.114;24.220;2023-05-19T05:07:25;97944.25;;;18.29;57.81
55066;BME280;40964;42.114;24.220;2023-05-19T05:09:51;97937.88;;;18.35;58.63
55066;BME280;40964;42.114;24.220;2023-05-19T05:12:17;97941.25;;;18.15;57.64
55066;BME280;40964;42.114;24.220;2023-05-19T05:14:43;97938.09;;;18.23;59.03
55066;BME280;40964;42.114;24.220;2023-05-19T05:17:10;97946.94;;;18.34;59.58
55066;BME280;40964;42.114;24.220;2023-05-19T05:19:36;97941.34;;;18.46;59.21
55066;BME280;40964;42.114;24.220;2023-05-19T05:22:02;97935.50;;;18.43;57.71
55066;BME280;40964;42.114;24.220;2023-05-19T05:24:28;97940.00;;;18.38;58.59
55066;BME280;40964;42.114;24.220;2023-05-19T05:26:54;97940.81;;;18.49;56.66
55066;BME280;40964;42.114;24.220;2023-05-19T05:29:19;97945.31;;;18.38;57.53
55066;BME280;40964;42.114;24.220;2023-05-19T05:31:45;97939.75;;;18.44;58.07
55066;BME280;40964;42.114;24.220;2023-05-19T05:34:11;97940.25;;;18.41;57.41
55066;BME280;40964;42.114;24.220;2023-05-19T05:36:36;97945.88;;;18.45;58.17
55066;BME280;40964;42.114;24.220;2023-05-19T05:39:02;97953.84;;;18.40;59.40
55066;BME280;40964;42.114;24.220;2023-05-19T05:41:27;97959.69;;;18.42;57.74
55066;BME280;40964;42.114;24.220;2023-05-19T05:44:02;97960.00;;;18.51;57.92
55066;BME280;40964;42.114;24.220;2023-05-19T05:46:27;97959.50;;;18.64;58.34
55066;BME280;40964;42.114;24.220;2023-05-19T05:48:53;97966.22;;;18.82;59.33
55066;BME280;40964;42.114;24.220;2023-05-19T05:51:22;97975.00;;;18.92;57.83
55066;BME280;40964;42.114;24.220;2023-05-19T05:53:52;97977.13;;;18.75;60.21
55066;BME280;40964;42.114;24.220;2023-05-19T05:56:18;97971.78;;;18.75;59.54
55066;BME280;40964;42.114;24.220;2023-05-19T05:58:44;97969.41;;;18.84;61.32
55066;BME280;40964;42.114;24.220;2023-05-19T06:01:09;97973.66;;;18.69;59.22
55066;BME280;40964;42.114;24.220;2023-05-19T06:03:39;97980.59;;;18.96;59.07
55066;BME280;40964;42.114;24.220;2023-05-19T06:06:05;97986.75;;;19.02;58.54
55066;BME280;40964;42.114;24.220;2023-05-19T06:08:31;97987.25;;;19.14;60.81
55066;BME280;40964;42.114;24.220;2023-05-19T06:10:56;97991.53;;;19.05;57.28
55066;BME280;40964;42.114;24.220;2023-05-19T06:13:23;97986.50;;;19.08;58.38
55066;BME280;40964;42.114;24.220;2023-05-19T06:15:50;97989.41;;;19.07;60.71
55066;BME280;40964;42.114;24.220;2023-05-19T06:18:16;97991.28;;;19.01;62.27
55066;BME280;40964;42.114;24.220;2023-05-19T06:20:41;97997.69;;;19.05;60.28
55066;BME280;40964;42.114;24.220;2023-05-19T06:23:07;97997.69;;;19.05;59.55
55066;BME280;40964;42.114;24.220;2023-05-19T06:25:32;97986.75;;;18.96;58.29
55066;BME280;40964;42.114;24.220;2023-05-19T06:27:58;97995.03;;;19.15;58.58
55066;BME280;40964;42.114;24.220;2023-05-19T06:30:23;98000.63;;;19.24;59.88
55066;BME280;40964;42.114;24.220;2023-05-19T06:32:49;98003.81;;;19.36;60.99
55066;BME280;40964;42.114;24.220;2023-05-19T06:35:14;98000.09;;;19.42;60.43
55066;BME280;40964;42.114;24.220;2023-05-19T06:37:40;98001.16;;;19.41;58.77
55066;BME280;40964;42.114;24.220;2023-05-19T06:40:06;98016.63;;;19.44;60.70
55066;BME280;40964;42.114;24.220;2023-05-19T06:42:32;97994.47;;;19.54;59.01
55066;BME280;40964;42.114;24.220;2023-05-19T06:44:58;98007.00;;;19.64;58.91
55066;BME280;40964;42.114;24.220;2023-05-19T06:47:23;98003.81;;;19.62;60.02
55066;BME280;40964;42.114;24.220;2023-05-19T06:49:48;98015.00;;;19.59;57.58
55066;BME280;40964;42.114;24.220;2023-05-19T06:52:20;98009.69;;;19.69;59.18
55066;BME280;40964;42.114;24.220;2023-05-19T06:54:47;98016.88;;;19.78;57.28
55066;BME280;40964;42.114;24.220;2023-05-19T06:57:13;98026.44;;;19.84;56.48
55066;BME280;40964;42.114;24.220;2023-05-19T06:59:38;98018.47;;;19.79;55.89
55066;BME280;40964;42.114;24.220;2023-05-19T07:02:06;97993.13;;;19.72;59.00
55066;BME280;40964;42.114;24.220;2023-05-19T07:04:31;98017.38;;;19.91;60.55
55066;BME280;40964;42.114;24.220;2023-05-19T07:06:57;98021.88;;;20.00;57.44
55066;BME280;40964;42.114;24.220;2023-05-19T07:09:22;98014.59;;;20.21;59.85
55066;BME280;40964;42.114;24.220;2023-05-19T07:11:48;98024.22;;;20.22;57.57
55066;BME280;40964;42.114;24.220;2023-05-19T07:14:13;98026.94;;;20.07;57.81
55066;BME280;40964;42.114;24.220;2023-05-19T07:16:39;98026.09;;;20.11;56.77
55066;BME280;40964;42.114;24.220;2023-05-19T07:19:05;98021.28;;;20.19;56.73
55066;BME280;40964;42.114;24.220;2023-05-19T07:21:30;98014.25;;;20.38;56.16
55066;BME280;40964;42.114;24.220;2023-05-19T07:23:55;98007.59;;;20.40;55.09
55066;BME280;40964;42.114;24.220;2023-05-19T07:26:21;98021.38;;;20.63;59.39
55066;BME280;40964;42.114;24.220;2023-05-19T07:28:46;98015.72;;;20.69;57.13
55066;BME280;40964;42.114;24.220;2023-05-19T07:31:12;98012.47;;;20.78;57.53
55066;BME280;40964;42.114;24.220;2023-05-19T07:33:37;98028.81;;;20.71;56.94
55066;BME280;40964;42.114;24.220;2023-05-19T07:36:03;98023.25;;;20.62;57.24
55066;BME280;40964;42.114;24.220;2023-05-19T07:38:29;98023.00;;;20.59;57.68
55066;BME280;40964;42.114;24.220;2023-05-19T07:40:58;98038.50;;;20.62;57.62
55066;BME280;40964;42.114;24.220;2023-05-19T07:43:24;98032.75;;;20.84;59.00
55066;BME280;40964;42.114;24.220;2023-05-19T07:45:49;98030.84;;;20.89;58.97
55066;BME280;40964;42.114;24.220;2023-05-19T07:48:15;98030.41;;;21.11;57.01
55066;BME280;40964;42.114;24.220;2023-05-19T07:50:42;98026.41;;;21.14;58.37
55066;BME280;40964;42.114;24.220;2023-05-19T07:53:08;98036.69;;;20.96;56.41
55066;BME280;40964;42.114;24.220;2023-05-19T07:55:33;98027.44;;;21.18;57.95
55066;BME280;40964;42.114;24.220;2023-05-19T07:57:59;98022.94;;;21.13;55.71
55066;BME280;40964;42.114;24.220;2023-05-19T08:00:24;98030.31;;;21.32;61.52
55066;BME280;40964;42.114;24.220;2023-05-19T08:02:50;98022.41;;;21.50;57.28
55066;BME280;40964;42.114;24.220;2023-05-19T08:05:17;98026.59;;;21.57;57.78
55066;BME280;40964;42.114;24.220;2023-05-19T08:07:43;98024.03;;;21.46;55.86
55066;BME280;40964;42.114;24.220;2023-05-19T08:10:08;98024.03;;;21.46;55.52
55066;BME280;40964;42.114;24.220;2023-05-19T08:12:34;98028.59;;;21.75;52.84
55066;BME280;40964;42.114;24.220;2023-05-19T08:14:59;98024.44;;;21.88;55.10
55066;BME280;40964;42.114;24.220;2023-05-19T08:17:25;98027.84;;;21.69;55.04
55066;BME280;40964;42.114;24.220;2023-05-19T08:19:50;98033.75;;;21.66;55.63
55066;BME280;40964;42.114;24.220;2023-05-19T08:22:15;98038.75;;;21.73;54.59
55066;BME280;40964;42.114;24.220;2023-05-19T08:24:41;98029.09;;;21.77;53.86
55066;BME280;40964;42.114;24.220;2023-05-19T08:27:07;98020.44;;;22.14;52.33
55066;BME280;40964;42.114;24.220;2023-05-19T08:29:33;98031.91;;;22.20;53.45
55066;BME280;40964;42.114;24.220;2023-05-19T08:31:58;98022.81;;;22.40;51.76
55066;BME280;40964;42.114;24.220;2023-05-19T08:34:24;98028.03;;;22.92;48.77
55066;BME280;40964;42.114;24.220;2023-05-19T08:36:50;98034.06;;;22.60;49.66
55066;BME280;40964;42.114;24.220;2023-05-19T08:39:15;98030.16;;;22.72;51.04
55066;BME280;40964;42.114;24.220;2023-05-19T08:41:43;98037.88;;;22.97;47.91
55066;BME280;40964;42.114;24.220;2023-05-19T08:44:08;98034.59;;;23.19;46.84
55066;BME280;40964;42.114;24.220;2023-05-19T08:46:34;98034.22;;;23.26;48.25
55066;BME280;40964;42.114;24.220;2023-05-19T08:49:10;98024.00;;;23.28;45.13
55066;BME280;40964;42.114;24.220;2023-05-19T08:54:15;98025.44;;;23.52;48.87
55066;BME280;40964;42.114;24.220;2023-05-19T08:56:43;98038.38;;;23.50;43.53
55066;BME280;40964;42.114;24.220;2023-05-19T08:59:09;98029.88;;;23.62;40.05
55066;BME280;40964;42.114;24.220;2023-05-19T09:01:36;98028.84;;;23.91;42.84
55066;BME280;40964;42.114;24.220;2023-05-19T09:04:02;98030.91;;;23.80;42.32
55066;BME280;40964;42.114;24.220;2023-05-19T09:06:28;98040.38;;;24.05;43.97
55066;BME280;40964;42.114;24.220;2023-05-19T09:08:56;98037.69;;;24.05;40.22
55066;BME280;40964;42.114;24.220;2023-05-19T09:11:22;98040.88;;;23.93;40.09
55066;BME280;40964;42.114;24.220;2023-05-19T09:13:47;98041.38;;;24.23;41.40
55066;BME280;40964;42.114;24.220;2023-05-19T09:16:14;98042.41;;;24.41;43.62
55066;BME280;40964;42.114;24.220;2023-05-19T09:18:52;98027.72;;;24.60;42.18
55066;BME280;40964;42.114;24.220;2023-05-19T09:21:19;98039.97;;;24.80;42.19
55066;BME280;40964;42.114;24.220;2023-05-19T09:23:45;98022.88;;;24.85;39.56
55066;BME280;40964;42.114;24.220;2023-05-19T09:26:11;98035.31;;;24.95;38.32
55066;BME280;40964;42.114;24.220;2023-05-19T09:28:39;98036.22;;;25.04;39.20
55066;BME280;40964;42.114;24.220;2023-05-19T09:31:08;98004.16;;;25.38;39.38
55066;BME280;40964;42.114;24.220;2023-05-19T09:33:39;98020.06;;;26.11;40.57
55066;BME280;40964;42.114;24.220;2023-05-19T09:36:06;98020.78;;;25.94;38.74
55066;BME280;40964;42.114;24.220;2023-05-19T09:38:38;98023.44;;;25.54;38.63
55066;BME280;40964;42.114;24.220;2023-05-19T09:41:05;98025.69;;;25.92;38.89
55066;BME280;40964;42.114;24.220;2023-05-19T09:43:33;98023.44;;;26.16;38.93
55066;BME280;40964;42.114;24.220;2023-05-19T09:45:59;98017.84;;;26.52;37.57
55066;BME280;40964;42.114;24.220;2023-05-19T09:48:27;98027.38;;;26.84;38.73
55066;BME280;40964;42.114;24.220;2023-05-19T09:50:53;98024.84;;;27.23;37.85
55066;BME280;40964;42.114;24.220;2023-05-19T09:53:20;98026.94;;;27.17;39.45
55066;BME280;40964;42.114;24.220;2023-05-19T09:55:46;98015.66;;;26.98;40.06
55066;BME280;40964;42.114;24.220;2023-05-19T09:58:17;98031.63;;;26.59;37.36
55066;BME280;40964;42.114;24.220;2023-05-19T10:00:46;98024.19;;;26.56;41.90
55066;BME280;40964;42.114;24.220;2023-05-19T10:03:12;98018.63;;;26.44;38.09
55066;BME280;40964;42.114;24.220;2023-05-19T10:05:38;98026.91;;;26.17;38.16
55066;BME280;40964;42.114;24.220;2023-05-19T10:08:06;98028.84;;;25.85;39.16
55066;BME280;40964;42.114;24.220;2023-05-19T10:10:35;98035.03;;;25.86;37.87
55066;BME280;40964;42.114;24.220;2023-05-19T10:13:01;98021.13;;;25.70;41.22
55066;BME280;40964;42.114;24.220;2023-05-19T10:15:28;98023.88;;;25.79;42.09
55066;BME280;40964;42.114;24.220;2023-05-19T10:17:55;98019.19;;;25.62;39.40
55066;BME280;40964;42.114;24.220;2023-05-19T10:20:21;98004.31;;;25.64;41.78
55066;BME280;40964;42.114;24.220;2023-05-19T10:22:46;98021.91;;;25.17;40.57
55066;BME280;40964;42.114;24.220;2023-05-19T10:25:13;98020.69;;;24.87;40.65
55066;BME280;40964;42.114;24.220;2023-05-19T10:27:56;98024.97;;;25.24;40.64
55066;BME280;40964;42.114;24.220;2023-05-19T10:30:32;98022.03;;;25.34;40.40
55066;BME280;40964;42.114;24.220;2023-05-19T10:33:00;98017.00;;;25.41;38.83
55066;BME280;40964;42.114;24.220;2023-05-19T10:35:29;98020.31;;;25.38;41.40
55066;BME280;40964;42.114;24.220;2023-05-19T10:38:23;98016.50;;;25.62;40.91
55066;BME280;40964;42.114;24.220;2023-05-19T10:43:57;98010.03;;;25.40;42.30
55066;BME280;40964;42.114;24.220;2023-05-19T10:46:26;98012.81;;;24.90;41.89
55066;BME280;40964;42.114;24.220;2023-05-19T10:48:53;98011.66;;;24.69;42.07
55066;BME280;40964;42.114;24.220;2023-05-19T10:51:18;98008.75;;;24.79;42.53
55066;BME280;40964;42.114;24.220;2023-05-19T10:53:44;98002.50;;;24.70;44.01
55066;BME280;40964;42.114;24.220;2023-05-19T10:56:31;98015.69;;;24.30;43.84
55066;BME280;40964;42.114;24.220;2023-05-19T10:59:03;98012.00;;;23.99;44.39
55066;BME280;40964;42.114;24.220;2023-05-19T11:01:33;98022.88;;;23.94;46.29
55066;BME280;40964;42.114;24.220;2023-05-19T11:04:07;98022.91;;;23.61;47.48
55066;BME280;40964;42.114;24.220;2023-05-19T11:06:35;98021.66;;;23.72;49.13
55066;BME280;40964;42.114;24.220;2023-05-19T11:09:15;98013.53;;;23.59;50.59
55066;BME280;40964;42.114;24.220;2023-05-19T11:11:49;98008.88;;;23.32;49.76
55066;BME280;40964;42.114;24.220;2023-05-19T11:14:17;98021.88;;;23.57;51.11
55066;BME280;40964;42.114;24.220;2023-05-19T11:16:48;98006.22;;;23.64;50.36
55066;BME280;40964;42.114;24.220;2023-05-19T11:19:33;98005.78;;;23.57;47.64
55066;BME280;40964;42.114;24.220;2023-05-19T11:22:12;98009.56;;;23.56;50.67
55066;BME280;40964;42.114;24.220;2023-05-19T11:24:42;98011.16;;;23.57;48.08
55066;BME280;40964;42.114;24.220;2023-05-19T11:27:35;97997.06;;;23.65;47.99
55066;BME280;40964;42.114;24.220;2023-05-19T11:32:33;97995.91;;;24.26;49.05
55066;BME280;40964;42.114;24.220;2023-05-19T11:34:59;97994.56;;;24.51;46.86
55066;BME280;40964;42.114;24.220;2023-05-19T11:37:25;97990.59;;;24.62;47.73
55066;BME280;40964;42.114;24.220;2023-05-19T11:39:52;97979.38;;;25.05;48.66
55066;BME280;40964;42.114;24.220;2023-05-19T11:42:18;97981.66;;;24.98;43.71
55066;BME280;40964;42.114;24.220;2023-05-19T11:44:44;97974.69;;;24.75;44.26
55066;BME280;40964;42.114;24.220;2023-05-19T11:47:14;97978.44;;;24.87;46.31
55066;BME280;40964;42.114;24.220;2023-05-19T11:49:49;97971.72;;;24.99;46.31
55066;BME280;40964;42.114;24.220;2023-05-19T11:52:16;97990.13;;;24.47;43.64
55066;BME280;40964;42.114;24.220;2023-05-19T11:54:41;97964.06;;;23.92;43.31
55066;BME280;40964;42.114;24.220;2023-05-19T11:57:08;97991.13;;;23.96;44.47
55066;BME280;40964;42.114;24.220;2023-05-19T11:59:38;97998.78;;;24.02;45.97
55066;BME280;40964;42.114;24.220;2023-05-19T12:02:20;97997.56;;;23.67;45.93
55066;BME280;40964;42.114;24.220;2023-05-19T12:04:47;97994.38;;;23.79;46.11
55066;BME280;40964;42.114;24.220;2023-05-19T12:07:23;97999.41;;;23.99;46.21
55066;BME280;40964;42.114;24.220;2023-05-19T12:09:50;97991.41;;;24.22;45.30
55066;BME280;40964;42.114;24.220;2023-05-19T12:12:20;97991.00;;;24.28;45.11
55066;BME280;40964;42.114;24.220;2023-05-19T12:14:50;97978.97;;;24.40;43.79
55066;BME280;40964;42.114;24.220;2023-05-19T12:17:18;97989.53;;;24.36;43.83
55066;BME280;40964;42.114;24.220;2023-05-19T12:19:44;97973.19;;;24.46;42.14
55066;BME280;40964;42.114;24.220;2023-05-19T12:22:11;97967.53;;;24.06;44.56
55066;BME280;40964;42.114;24.220;2023-05-19T12:24:37;97969.41;;;24.47;44.78
55066;BME280;40964;42.114;24.220;2023-05-19T12:27:24;97962.94;;;24.71;42.60
55066;BME280;40964;42.114;24.220;2023-05-19T12:29:54;97972.06;;;25.19;42.54
55066;BME280;40964;42.114;24.220;2023-05-19T12:32:26;97965.63;;;25.29;39.27
55066;BME280;40964;42.114;24.220;2023-05-19T12:34:54;97961.44;;;25.77;42.42
55066;BME280;40964;42.114;24.220;2023-05-19T12:37:21;97964.84;;;25.99;40.75
55066;BME280;40964;42.114;24.220;2023-05-19T12:39:49;97968.34;;;25.69;41.41
55066;BME280;40964;42.114;24.220;2023-05-19T12:42:15;97964.31;;;25.80;39.72
55066;BME280;40964;42.114;24.220;2023-05-19T12:44:48;97962.53;;;25.44;40.36
55066;BME280;40964;42.114;24.220;2023-05-19T12:47:18;97962.44;;;25.58;40.80
55066;BME280;40964;42.114;24.220;2023-05-19T12:50:06;97960.00;;;25.79;40.05
55066;BME280;40964;42.114;24.220;2023-05-19T12:52:45;97953.94;;;26.13;39.08
55066;BME280;40964;42.114;24.220;2023-05-19T12:55:12;97954.34;;;25.58;41.47
55066;BME280;40964;42.114;24.220;2023-05-19T12:57:39;97944.41;;;25.67;43.24
55066;BME280;40964;42.114;24.220;2023-05-19T13:00:15;97945.13;;;25.51;39.33
55066;BME280;40964;42.114;24.220;2023-05-19T13:02:57;97945.44;;;25.49;40.94
55066;BME280;40964;42.114;24.220;2023-05-19T13:05:25;97949.06;;;25.44;42.36
55066;BME280;40964;42.114;24.220;2023-05-19T13:07:58;97946.34;;;24.91;39.84
55066;BME280;40964;42.114;24.220;2023-05-19T13:10:24;97939.44;;;24.99;41.23
55066;BME280;40964;42.114;24.220;2023-05-19T13:12:57;97947.38;;;24.81;41.62
55066;BME280;40964;42.114;24.220;2023-05-19T13:15:24;97946.28;;;25.05;41.58
55066;BME280;40964;42.114;24.220;2023-05-19T13:17:51;97950.66;;;25.45;39.85
55066;BME280;40964;42.114;24.220;2023-05-19T13:20:17;97958.59;;;25.51;38.09
55066;BME280;40964;42.114;24.220;2023-05-19T13:22:43;97954.22;;;25.63;39.79